Time;durP1;ratioP1;P1;durP2;ratioP2;P2;SDS_P1;SDS_P2;PMS_P1;PMS_P2;Temp;Humidity;BMP_temperature;BMP_pressure;BME280_temperature;BME280_humidity;BME280_pressure;Samples;Min_cycle;Max_cycle;Signal;HPM_P1;HPM_P2
2021/12/21 00:00:42;;;;;;;2.67;2.47;;;;;;;2.00;52.88;95039.84;5075224;28;20196;-63
2021/12/21 00:03:10;;;;;;;2.83;2.53;;;;;;;1.98;52.82;95036.59;5075258;28;20193;-63
2021/12/21 00:05:38;;;;;;;3.22;2.80;;;;;;;1.97;52.72;95042.34;5075260;28;20189;-63
2021/12/21 00:08:08;;;;;;;3.08;2.78;;;;;;;1.96;53.44;95041.53;5074803;28;20284;-63
2021/12/21 00:10:35;;;;;;;3.33;3.03;;;;;;;1.98;53.59;95042.03;5074825;28;20204;-63
2021/12/21 00:13:08;;;;;;;3.00;2.80;;;;;;;1.97;53.22;95048.59;5091151;28;20209;-63
2021/12/21 00:15:49;;;;;;;3.00;2.80;;;;;;;1.96;53.67;95041.53;5075461;28;20197;-63
2021/12/21 00:18:32;;;;;;;3.17;2.90;;;;;;;2.02;53.40;95047.69;5075197;28;20208;-63
2021/12/21 00:21:05;;;;;;;3.15;2.95;;;;;;;2.00;54.25;95052.59;5091067;28;20200;-63
2021/12/21 00:23:35;;;;;;;3.33;3.03;;;;;;;1.99;54.43;95054.53;5075118;28;20185;-63
2021/12/21 00:26:05;;;;;;;3.05;2.85;;;;;;;2.00;54.29;95061.59;5075174;28;20220;-63
2021/12/21 00:28:37;;;;;;;2.92;2.72;;;;;;;2.02;54.41;95064.00;5074113;28;20208;-63
2021/12/21 00:31:04;;;;;;;3.30;3.00;;;;;;;2.00;54.27;95066.22;5074735;28;20185;-63
2021/12/21 00:33:32;;;;;;;3.33;3.03;;;;;;;1.99;54.05;95059.97;5074995;28;20197;-63
2021/12/21 00:35:59;;;;;;;3.38;3.08;;;;;;;1.97;54.52;95067.63;5074891;28;20185;-63
2021/12/21 00:38:26;;;;;;;2.78;2.58;;;;;;;1.95;53.54;95064.38;5073785;28;20201;-63
2021/12/21 00:40:53;;;;;;;2.88;2.67;;;;;;;1.96;53.95;95071.47;5090753;28;20215;-63
2021/12/21 00:43:20;;;;;;;3.05;2.85;;;;;;;1.95;54.20;95072.53;5074651;28;20170;-63
2021/12/21 00:45:46;;;;;;;2.90;2.70;;;;;;;1.92;54.08;95079.41;5074100;28;20291;-63
2021/12/21 00:48:15;;;;;;;3.63;2.88;;;;;;;1.89;54.29;95073.75;5074900;28;20185;-63
2021/12/21 00:50:43;;;;;;;2.88;2.67;;;;;;;1.89;54.50;95087.34;5074720;28;20200;-63
2021/12/21 00:53:10;;;;;;;3.17;2.60;;;;;;;1.86;54.62;95091.47;5074783;28;20208;-63
2021/12/21 00:55:37;;;;;;;3.08;2.88;;;;;;;1.85;54.55;95084.44;5090732;28;20201;-63
2021/12/21 00:58:04;;;;;;;3.00;2.80;;;;;;;1.86;55.11;95085.22;5090590;28;20556;-63
2021/12/21 01:00:31;;;;;;;2.90;2.70;;;;;;;1.86;54.78;95083.31;5074671;28;20200;-63
2021/12/21 01:03:04;;;;;;;3.10;2.90;;;;;;;1.88;54.91;95075.66;5074677;28;20196;-63
2021/12/21 01:05:38;;;;;;;3.13;2.92;;;;;;;1.85;54.34;95079.00;5073752;28;20205;-63
2021/12/21 01:08:08;;;;;;;3.50;3.20;;;;;;;1.85;54.40;95086.31;5075172;28;20207;-63
2021/12/21 01:13:47;;;;;;;3.53;3.25;;;;;;;1.85;54.35;95087.16;5078089;28;20598;-63
2021/12/21 01:16:21;;;;;;;3.20;3.00;;;;;;;1.85;54.48;95094.47;5077540;28;20258;-63
2021/12/21 01:19:04;;;;;;;3.33;3.10;;;;;;;1.79;55.07;95096.47;5094256;28;20195;-63
2021/12/21 01:21:35;;;;;;;3.15;2.95;;;;;;;1.81;54.99;95099.69;5094698;28;20204;-63
2021/12/21 01:24:35;;;;;;;3.10;2.90;;;;;;;1.77;54.52;95098.69;5078208;28;20277;-63
2021/12/21 01:29:58;;;;;;;3.13;2.92;;;;;;;1.74;54.84;95095.75;5072056;28;20288;-62
2021/12/21 01:32:38;;;;;;;3.22;3.03;;;;;;;1.67;54.27;95091.50;5078083;28;20189;-62
2021/12/21 01:35:12;;;;;;;3.30;3.00;;;;;;;1.68;54.13;95093.13;5094415;28;20192;-62
2021/12/21 01:37:49;;;;;;;2.70;2.60;;;;;;;1.70;54.04;95090.09;5078023;28;20219;-62
2021/12/21 01:40:34;;;;;;;3.45;3.15;;;;;;;1.74;53.79;95093.03;5076991;28;20250;-62
2021/12/21 01:51:16;;;;;;;3.08;2.85;;;;;;;1.64;52.00;95099.44;5077392;28;20233;-62
2021/12/21 01:53:44;;;;;;;3.22;2.92;;;;;;;1.62;52.58;95098.94;5076503;28;20209;-63
2021/12/21 01:56:13;;;;;;;3.35;2.90;;;;;;;1.61;52.39;95098.13;5077406;28;20232;-63
2021/12/21 01:58:40;;;;;;;2.90;2.70;;;;;;;1.61;52.07;95081.81;5076301;28;20225;-63
2021/12/21 02:01:09;;;;;;;3.28;2.97;;;;;;;1.60;51.81;95098.44;5076395;28;20211;-63
2021/12/21 02:03:36;;;;;;;3.28;2.97;;;;;;;1.55;51.54;95085.69;5077017;28;20205;-63
2021/12/21 02:06:03;;;;;;;3.00;2.80;;;;;;;1.55;51.42;95090.34;5076727;28;20211;-63
2021/12/21 02:08:30;;;;;;;2.90;2.70;;;;;;;1.53;51.49;95096.06;5093062;28;20203;-63
2021/12/21 02:11:00;;;;;;;2.63;2.42;;;;;;;1.53;51.75;95087.94;5076442;28;20199;-63
2021/12/21 02:13:32;;;;;;;2.78;2.58;;;;;;;1.56;51.35;95091.94;5077011;28;20186;-62
2021/12/21 02:15:59;;;;;;;2.35;2.25;;;;;;;1.58;51.28;95087.03;5077225;28;20193;-62
2021/12/21 02:21:23;;;;;;;2.63;2.42;;;;;;;1.51;50.45;95076.53;5069861;28;20290;-62
2021/12/21 02:23:53;;;;;;;2.35;2.20;;;;;;;1.52;50.69;95078.13;5093021;28;20254;-62
2021/12/21 02:26:38;;;;;;;2.08;1.98;;;;;;;1.50;50.62;95079.56;5076333;28;20239;-62
2021/12/21 02:29:15;;;;;;;2.88;2.67;;;;;;;1.41;50.42;95076.66;5092975;28;20211;-62
2021/12/21 02:31:45;;;;;;;2.40;2.20;;;;;;;1.41;50.68;95073.94;5077012;28;20644;-62
2021/12/21 02:34:12;;;;;;;2.50;2.30;;;;;;;1.40;50.75;95066.91;5076880;28;20519;-62
2021/12/21 02:36:42;;;;;;;2.67;2.47;;;;;;;1.29;50.68;95077.13;5076428;28;20621;-62
2021/12/21 02:39:09;;;;;;;3.33;2.85;;;;;;;1.30;50.64;95075.22;5076820;28;20192;-62
2021/12/21 02:41:37;;;;;;;3.28;2.97;;;;;;;1.29;50.99;95081.75;5076775;28;20196;-62
2021/12/21 02:44:04;;;;;;;2.72;2.50;;;;;;;1.24;51.38;95074.50;5075446;28;20227;-62
2021/12/21 02:46:31;;;;;;;2.40;2.20;;;;;;;1.29;51.82;95081.75;5076579;28;20190;-62
2021/12/21 02:48:59;;;;;;;2.78;2.30;;;;;;;1.32;51.51;95084.69;5076545;28;20182;-62
2021/12/21 02:51:25;;;;;;;2.42;2.22;;;;;;;1.35;51.48;95091.47;5075448;28;20207;-62
2021/12/21 02:53:54;;;;;;;2.72;2.53;;;;;;;1.37;51.37;95087.31;5076488;28;20203;-62
2021/12/21 02:56:21;;;;;;;2.75;2.55;;;;;;;1.37;51.53;95083.81;5092069;28;20239;-62
2021/12/21 02:58:47;;;;;;;2.92;2.42;;;;;;;1.38;51.14;95088.13;5076297;28;20209;-62
2021/12/21 03:01:14;;;;;;;2.67;2.47;;;;;;;1.37;51.56;95087.31;5075847;28;20197;-63
2021/12/21 03:03:41;;;;;;;2.70;2.50;;;;;;;1.38;51.73;95090.84;5092829;28;20197;-63
2021/12/21 03:06:13;;;;;;;2.85;2.65;;;;;;;1.37;51.64;95086.53;5076262;28;20177;-63
2021/12/21 03:08:43;;;;;;;2.70;2.50;;;;;;;1.35;51.66;95100.41;5074964;28;20192;-63
2021/12/21 03:11:20;;;;;;;2.40;2.20;;;;;;;1.36;52.00;95101.22;5075799;28;20191;-63
2021/12/21 03:14:08;;;;;;;2.50;2.30;;;;;;;1.33;52.58;95105.31;5092088;28;20303;-63
2021/12/21 03:16:36;;;;;;;2.45;2.25;;;;;;;1.29;52.60;95101.56;5076032;28;20189;-64
2021/12/21 03:19:04;;;;;;;2.58;2.38;;;;;;;1.31;52.51;95098.59;5076122;28;20241;-63
2021/12/21 03:21:31;;;;;;;2.13;2.00;;;;;;;1.31;52.36;95093.16;5075633;28;20187;-63
2021/12/21 03:23:57;;;;;;;2.50;2.30;;;;;;;1.34;51.59;95096.06;5074939;28;20197;-63
2021/12/21 03:26:26;;;;;;;2.33;2.13;;;;;;;1.31;51.43;95101.31;5091852;28;20192;-63
2021/12/21 03:28:53;;;;;;;2.25;2.10;;;;;;;1.27;51.53;95105.69;5075899;28;20182;-63
2021/12/21 03:31:20;;;;;;;2.33;2.13;;;;;;;1.25;51.00;95105.19;5075666;28;20189;-63
2021/12/21 03:33:48;;;;;;;2.00;1.90;;;;;;;1.30;50.77;95103.19;5075172;28;20199;-63
2021/12/21 03:36:17;;;;;;;2.05;1.95;;;;;;;1.33;50.46;95102.59;5074671;28;20551;-63
2021/12/21 03:38:49;;;;;;;2.38;2.17;;;;;;;1.33;50.83;95101.81;5074604;28;20270;-63
2021/12/21 03:41:17;;;;;;;2.35;2.15;;;;;;;1.34;50.82;95106.94;5075761;28;20189;-63
2021/12/21 03:43:45;;;;;;;2.33;2.13;;;;;;;1.31;50.18;95107.53;5075548;28;20181;-63
2021/12/21 03:46:14;;;;;;;2.20;2.10;;;;;;;1.32;50.25;95114.59;5075436;28;20190;-63
2021/12/21 03:48:43;;;;;;;2.05;1.95;;;;;;;1.34;50.27;95117.00;5075174;28;20609;-63
2021/12/21 03:51:11;;;;;;;2.38;2.17;;;;;;;1.37;50.33;95125.38;5075833;28;20181;-63
2021/12/21 03:53:38;;;;;;;2.17;2.00;;;;;;;1.35;49.94;95126.78;5091540;28;20227;-63
2021/12/21 03:56:23;;;;;;;2.28;2.08;;;;;;;1.35;49.77;95129.50;5075192;28;20241;-63
2021/12/21 03:58:52;;;;;;;2.08;1.95;;;;;;;1.33;49.90;95131.69;5074410;28;20224;-63
2021/12/21 04:01:19;;;;;;;1.90;1.80;;;;;;;1.34;50.12;95136.81;5074589;28;20231;-63
2021/12/21 04:03:45;;;;;;;2.08;1.98;;;;;;;1.35;50.00;95132.22;5075502;28;20193;-63
2021/12/21 04:06:14;;;;;;;1.90;1.80;;;;;;;1.36;50.38;95140.06;5091334;28;20210;-63
2021/12/21 04:08:41;;;;;;;2.20;2.10;;;;;;;1.38;49.76;95142.47;5074165;28;20201;-63
2021/12/21 04:11:08;;;;;;;2.17;1.98;;;;;;;1.40;49.41;95140.28;5075186;28;20192;-63
2021/12/21 04:13:34;;;;;;;2.55;2.35;;;;;;;1.39;49.84;95149.56;5074220;28;20199;-63
2021/12/21 04:16:05;;;;;;;2.47;2.28;;;;;;;1.41;49.61;95142.69;5074225;28;20192;-63
2021/12/21 04:18:35;;;;;;;2.35;2.22;;;;;;;1.39;49.36;95147.63;5074977;28;20216;-63
2021/12/21 04:21:02;;;;;;;2.80;2.60;;;;;;;1.38;49.66;95145.19;5074805;28;20606;-63
2021/12/21 04:23:29;;;;;;;2.80;2.60;;;;;;;1.40;49.54;95143.81;5075080;28;20182;-63
2021/12/21 04:25:56;;;;;;;2.70;2.50;;;;;;;1.41;49.50;95150.06;5091029;28;20211;-63
2021/12/21 04:28:23;;;;;;;2.53;2.28;;;;;;;1.39;49.23;95153.06;5075067;28;20193;-63
2021/12/21 04:30:50;;;;;;;2.03;1.92;;;;;;;1.35;49.12;95143.09;5090920;28;20203;-63
2021/12/21 04:33:18;;;;;;;3.35;2.85;;;;;;;1.34;49.38;95141.44;5074712;28;20189;-63
2021/12/21 04:35:45;;;;;;;3.10;2.08;;;;;;;1.37;49.26;95146.31;5075184;28;20267;-63
2021/12/21 04:38:20;;;;;;;2.10;2.00;;;;;;;1.39;48.69;95149.56;5074596;28;20205;-63
2021/12/21 04:40:51;;;;;;;2.20;2.10;;;;;;;1.36;48.71;95134.63;5074836;28;20279;-63
2021/12/21 04:43:17;;;;;;;2.33;2.22;;;;;;;1.37;48.81;95141.69;5091778;28;20205;-63
2021/12/21 04:45:45;;;;;;;2.22;2.03;;;;;;;1.37;48.33;95146.31;5078870;28;20204;-63
2021/12/21 04:48:12;;;;;;;2.17;1.90;;;;;;;1.32;48.34;95151.81;5078082;28;20221;-62
2021/12/21 04:50:40;;;;;;;2.30;2.10;;;;;;;1.31;48.84;95153.75;5078554;28;20191;-62
2021/12/21 04:53:07;;;;;;;2.25;2.10;;;;;;;1.26;48.51;95150.25;5078854;28;20211;-62
2021/12/21 04:55:34;;;;;;;2.42;2.00;;;;;;;1.23;48.82;95157.09;5078826;28;20199;-62
2021/12/21 04:58:00;;;;;;;2.10;2.00;;;;;;;1.25;48.39;95156.81;5038645;28;20218;-63
2021/12/21 05:00:28;;;;;;;2.03;1.92;;;;;;;1.25;48.41;95168.47;5054468;28;20194;-62
2021/12/21 05:02:54;;;;;;;1.70;1.60;;;;;;;1.24;47.94;95166.06;5038316;28;20193;-62
2021/12/21 05:05:21;;;;;;;2.47;2.30;;;;;;;1.23;48.26;95167.94;5038296;28;20187;-62
2021/12/21 05:07:54;;;;;;;2.50;2.30;;;;;;;1.17;48.28;95169.13;5038742;28;20285;-64
2021/12/21 05:10:21;;;;;;;2.63;2.42;;;;;;;1.14;48.96;95165.09;5038245;28;20182;-63
2021/12/21 05:12:48;;;;;;;2.90;2.63;;;;;;;1.17;48.89;95178.09;5038465;28;20194;-63
2021/12/21 05:15:15;;;;;;;3.50;3.20;;;;;;;1.16;48.89;95179.19;5037745;28;20214;-63
2021/12/21 05:17:41;;;;;;;3.08;2.78;;;;;;;1.16;49.17;95178.38;5038073;28;20203;-67
2021/12/21 05:20:09;;;;;;;3.38;3.08;;;;;;;1.15;49.37;95183.00;5037442;28;20435;-63
2021/12/21 05:22:36;;;;;;;3.28;2.85;;;;;;;1.14;49.29;95173.22;5037354;28;20191;-63
2021/12/21 05:25:04;;;;;;;2.83;2.63;;;;;;;1.12;49.32;95175.41;5037951;28;20194;-64
2021/12/21 05:27:31;;;;;;;2.40;2.30;;;;;;;1.13;49.41;95187.94;5038176;28;20197;-63
2021/12/21 05:29:58;;;;;;;2.10;1.90;;;;;;;1.14;49.78;95191.44;5037375;28;20202;-63
2021/12/21 05:32:25;;;;;;;2.38;2.17;;;;;;;1.14;49.79;95184.09;5037243;28;20202;-63
2021/12/21 05:34:52;;;;;;;2.45;2.25;;;;;;;1.15;49.47;95182.19;5036699;28;20202;-63
2021/12/21 05:37:19;;;;;;;2.10;2.00;;;;;;;1.16;49.31;95189.22;5037297;28;20194;-63
2021/12/21 05:39:56;;;;;;;2.03;1.92;;;;;;;1.15;49.52;95187.63;5037948;28;20214;-62
2021/12/21 05:42:24;;;;;;;1.80;1.70;;;;;;;1.14;49.76;95191.44;5037634;28;20232;-63
2021/12/21 05:44:51;;;;;;;2.20;2.00;;;;;;;1.13;49.96;95196.06;5037813;28;20179;-62
2021/12/21 05:47:18;;;;;;;1.95;1.85;;;;;;;1.07;50.52;95186.38;5037280;28;20236;-65
2021/12/21 05:49:45;;;;;;;2.38;2.22;;;;;;;1.07;50.32;95191.78;5036992;28;20203;-63
2021/12/21 05:52:12;;;;;;;3.05;2.05;;;;;;;1.06;50.55;95200.25;5036853;28;20203;-63
2021/12/21 05:54:39;;;;;;;2.17;2.08;;;;;;;1.05;50.79;95209.47;5036888;28;20202;-63
2021/12/21 05:57:06;;;;;;;2.10;2.00;;;;;;;1.07;50.93;95207.28;5063036;28;20354;-63
2021/12/21 05:59:35;;;;;;;2.08;1.98;;;;;;;1.02;51.26;95205.44;5076905;28;20221;-63
2021/12/21 06:02:01;;;;;;;2.30;2.10;;;;;;;1.03;51.45;95206.25;5076890;28;20197;-67
2021/12/21 06:04:28;;;;;;;2.42;2.28;;;;;;;1.06;51.49;95209.19;5077587;28;20200;-63
2021/12/21 06:06:55;;;;;;;2.20;2.10;;;;;;;1.06;51.58;95211.91;5077498;28;20189;-63
2021/12/21 06:09:22;;;;;;;2.53;2.30;;;;;;;1.04;52.03;95214.09;5093152;28;20201;-64
2021/12/21 06:12:00;;;;;;;2.60;2.40;;;;;;;1.02;51.96;95218.19;5078084;28;20189;-64
2021/12/21 06:14:54;;;;;;;2.70;2.47;;;;;;;1.02;52.02;95221.75;5077132;28;20284;-65
2021/12/21 06:26:03;;;;;;;3.10;2.90;;;;;;;1.02;52.45;95246.19;5081039;28;20636;-63
2021/12/21 06:28:31;;;;;;;3.28;2.97;;;;;;;1.05;52.33;95253.72;5076877;28;20181;-67
2021/12/21 06:30:58;;;;;;;3.70;3.40;;;;;;;1.09;52.11;95262.13;5076182;28;20399;-63
2021/12/21 06:33:26;;;;;;;3.75;3.45;;;;;;;1.09;51.83;95265.69;5075791;28;20197;-63
2021/12/21 06:35:53;;;;;;;4.28;3.63;;;;;;;1.07;52.51;95264.34;5076899;28;20189;-65
2021/12/21 06:38:20;;;;;;;3.80;3.50;;;;;;;1.05;52.88;95278.19;5075583;28;20525;-63
2021/12/21 06:40:48;;;;;;;3.00;2.70;;;;;;;1.10;52.46;95283.59;5076780;28;20192;-63
2021/12/21 06:43:16;;;;;;;2.75;2.55;;;;;;;1.11;52.58;95282.47;5092719;28;20193;-63
2021/12/21 06:45:49;;;;;;;2.83;2.50;;;;;;;1.14;52.71;95283.81;5093008;28;20201;-63
2021/12/21 06:51:16;;;;;;;3.05;2.75;;;;;;;1.20;52.30;95297.06;5076833;28;20177;-64
2021/12/21 06:53:45;;;;;;;2.60;2.40;;;;;;;1.22;51.99;95295.97;5094552;28;20216;-64
2021/12/21 06:56:12;;;;;;;2.30;2.20;;;;;;;1.20;52.03;95299.78;5092512;28;20233;-63
2021/12/21 06:58:39;;;;;;;2.35;2.22;;;;;;;1.20;52.06;95296.25;5076289;28;20216;-63
2021/12/21 07:01:05;;;;;;;2.80;2.60;;;;;;;1.23;51.79;95295.66;5093016;28;20621;-63
2021/12/21 07:03:33;;;;;;;3.15;2.95;;;;;;;1.24;52.06;95304.66;5075649;28;20189;-63
2021/12/21 07:06:02;;;;;;;2.45;2.30;;;;;;;1.15;52.20;95307.16;5076135;28;20189;-63
2021/12/21 07:08:32;;;;;;;2.78;2.50;;;;;;;1.20;52.00;95310.66;5076228;28;20186;-63
2021/12/21 07:11:11;;;;;;;2.35;2.15;;;;;;;1.20;51.19;95307.94;5075377;28;20299;-63
2021/12/21 07:19:09;;;;;;;2.78;2.58;;;;;;;1.28;51.16;95313.84;5074669;28;20238;-63
2021/12/21 07:21:37;;;;;;;2.50;2.30;;;;;;;1.28;50.85;95309.22;5075701;28;20227;-63
2021/12/21 07:24:05;;;;;;;2.72;2.53;;;;;;;1.28;50.70;95324.72;5076079;28;20199;-63
2021/12/21 07:26:32;;;;;;;3.50;3.10;;;;;;;1.33;50.90;95322.72;5075218;28;20200;-64
2021/12/21 07:28:59;;;;;;;3.13;2.50;;;;;;;1.42;50.62;95320.22;5076252;28;20181;-63
2021/12/21 07:31:26;;;;;;;3.25;2.95;;;;;;;1.49;50.18;95325.28;5075886;28;20185;-63
2021/12/21 07:33:52;;;;;;;3.20;2.90;;;;;;;1.55;49.99;95313.25;5090554;28;20420;-64
2021/12/21 07:36:19;;;;;;;3.10;2.90;;;;;;;1.62;50.22;95314.53;5075516;28;20189;-64
2021/12/21 07:38:47;;;;;;;2.20;2.10;;;;;;;1.73;49.70;95326.09;5075790;28;20236;-63
2021/12/21 07:41:14;;;;;;;2.55;2.35;;;;;;;1.75;49.57;95325.81;5075941;28;20204;-64
2021/12/21 07:43:41;;;;;;;2.72;2.53;;;;;;;1.85;49.58;95318.34;5076253;28;20189;-63
2021/12/21 07:46:08;;;;;;;2.80;2.60;;;;;;;1.98;49.21;95326.88;5091658;28;20211;-63
2021/12/21 07:48:35;;;;;;;3.03;2.83;;;;;;;2.10;49.64;95324.53;5074683;28;20207;-65
2021/12/21 07:51:02;;;;;;;2.75;2.55;;;;;;;2.19;49.62;95319.25;5091821;28;20197;-64
2021/12/21 07:53:29;;;;;;;3.22;2.92;;;;;;;2.25;48.72;95318.88;5075431;28;20205;-64
2021/12/21 07:56:02;;;;;;;2.65;2.45;;;;;;;2.33;48.46;95322.84;5075366;28;20232;-63
2021/12/21 07:58:30;;;;;;;2.78;2.58;;;;;;;2.44;48.26;95331.69;5075113;28;20235;-64
2021/12/21 08:00:57;;;;;;;3.00;2.80;;;;;;;2.48;47.89;95330.00;5092368;28;20201;-64
2021/12/21 08:03:24;;;;;;;2.88;2.67;;;;;;;2.45;48.22;95334.09;5075403;28;20203;-64
2021/12/21 08:05:54;;;;;;;3.50;3.20;;;;;;;2.50;48.64;95331.28;5074175;28;20436;-64
2021/12/21 08:08:23;;;;;;;3.08;2.80;;;;;;;2.58;48.21;95333.38;5091313;28;20554;-65
2021/12/21 08:10:51;;;;;;;2.70;2.50;;;;;;;2.60;47.48;95352.94;5074371;28;20228;-66
2021/12/21 08:13:19;;;;;;;2.70;2.50;;;;;;;2.55;47.82;95353.00;5074521;28;20204;-63
2021/12/21 08:15:47;;;;;;;2.90;2.70;;;;;;;2.51;47.51;95356.63;5075234;28;20177;-66
2021/12/21 08:18:14;;;;;;;2.42;2.33;;;;;;;2.37;47.87;95343.75;5090471;28;20435;-64
2021/12/21 08:20:41;;;;;;;2.20;2.10;;;;;;;2.31;48.14;95355.78;5075214;28;20192;-64
2021/12/21 08:23:08;;;;;;;2.95;2.75;;;;;;;2.27;48.16;95343.88;5075377;28;20200;-68
2021/12/21 08:25:35;;;;;;;3.03;2.72;;;;;;;2.22;48.39;95359.50;5090420;28;20430;-65
2021/12/21 08:28:03;;;;;;;3.40;3.20;;;;;;;2.16;48.33;95361.47;5075033;28;20443;-65
2021/12/21 08:30:32;;;;;;;3.90;3.60;;;;;;;2.10;48.45;95351.72;5075012;28;20173;-67
2021/12/21 08:32:59;;;;;;;3.08;2.80;;;;;;;2.05;48.42;95360.78;5075038;28;20189;-68
2021/12/21 08:35:27;;;;;;;3.08;2.88;;;;;;;2.06;48.32;95362.38;5075127;28;20185;-65
2021/12/21 08:38:00;;;;;;;3.40;2.60;;;;;;;2.20;48.69;95358.97;5075276;28;20189;-64
2021/12/21 08:40:35;;;;;;;2.75;2.55;;;;;;;2.42;47.51;95379.06;5073789;28;20240;-64
2021/12/21 08:43:03;;;;;;;2.92;2.28;;;;;;;2.57;47.46;95366.31;5074478;28;20277;-64
2021/12/21 08:45:30;;;;;;;3.10;2.33;;;;;;;2.79;47.54;95373.91;5074951;28;20212;-64
2021/12/21 08:47:59;;;;;;;2.85;2.58;;;;;;;2.94;46.36;95370.94;5075085;28;20189;-63
2021/12/21 08:50:26;;;;;;;3.03;2.50;;;;;;;3.05;45.54;95374.28;5074742;28;20654;-63
2021/12/21 08:52:53;;;;;;;1.90;1.77;;;;;;;3.14;44.19;95369.78;5074593;28;20177;-63
2021/12/21 08:55:20;;;;;;;2.13;2.03;;;;;;;3.28;44.18;95383.47;5075006;28;20189;-63
2021/12/21 08:57:47;;;;;;;1.98;1.85;;;;;;;3.46;43.87;95376.34;5090646;28;20753;-63
2021/12/21 09:00:15;;;;;;;2.65;2.30;;;;;;;3.67;43.80;95374.84;5074374;28;20559;-63
2021/12/21 09:02:42;;;;;;;2.60;2.40;;;;;;;3.79;42.76;95377.88;5074012;28;20193;-63
2021/12/21 09:05:14;;;;;;;2.42;2.22;;;;;;;3.63;42.19;95382.00;5074963;28;20212;-63
2021/12/21 09:07:43;;;;;;;2.60;2.40;;;;;;;3.52;42.47;95384.13;5091153;28;20201;-63
2021/12/21 09:10:12;;;;;;;9.43;3.30;;;;;;;3.51;42.00;95376.22;5073875;28;20534;-63
2021/12/21 09:12:38;;;;;;;2.05;1.95;;;;;;;3.61;43.35;95376.84;5090827;28;20197;-63
2021/12/21 09:15:07;;;;;;;1.80;1.70;;;;;;;3.88;42.39;95379.91;5074727;28;20196;-64
2021/12/21 09:17:34;;;;;;;2.90;2.70;;;;;;;3.69;41.41;95380.81;5074397;28;20203;-64
2021/12/21 09:20:01;;;;;;;3.47;3.17;;;;;;;3.75;42.68;95376.88;5073620;28;20221;-65
2021/12/21 09:22:29;;;;;;;5.03;4.53;;;;;;;4.08;42.53;95374.84;5074452;28;20196;-64
2021/12/21 09:24:57;;;;;;;4.10;3.80;;;;;;;4.28;40.40;95384.53;5073267;28;20208;-64
2021/12/21 09:27:25;;;;;;;3.45;3.15;;;;;;;4.30;41.14;95376.06;5090917;28;20193;-64
2021/12/21 09:29:51;;;;;;;3.33;3.03;;;;;;;4.55;41.36;95371.97;5076531;28;20191;-63
2021/12/21 09:32:18;;;;;;;3.00;2.70;;;;;;;4.70;40.82;95377.09;5094330;28;20204;-64
2021/12/21 09:34:47;;;;;;;3.22;2.92;;;;;;;5.05;41.33;95369.97;5094342;28;20197;-64
2021/12/21 09:37:17;;;;;;;3.30;2.55;;;;;;;5.04;39.83;95381.22;5078342;28;20204;-63
2021/12/21 09:39:46;;;;;;;2.50;2.30;;;;;;;4.62;39.52;95375.09;5094371;28;20278;-64
2021/12/21 09:42:15;;;;;;;3.47;2.25;;;;;;;4.07;40.32;95392.34;5077170;28;20204;-64
2021/12/21 09:44:42;;;;;;;2.03;1.92;;;;;;;3.77;41.39;95393.75;5077879;28;20200;-64
2021/12/21 09:47:10;;;;;;;2.00;1.90;;;;;;;3.56;41.76;95385.16;5078201;28;20184;-63
2021/12/21 09:49:37;;;;;;;2.10;2.00;;;;;;;3.41;42.04;95384.59;5077576;28;20563;-64
2021/12/21 09:52:04;;;;;;;2.20;2.10;;;;;;;3.18;42.76;95386.34;5077748;28;20189;-64
2021/12/21 09:54:33;;;;;;;2.28;2.08;;;;;;;3.01;43.32;95398.59;5076960;28;20212;-62
2021/12/21 09:57:01;;;;;;;2.90;2.45;;;;;;;2.92;43.63;95386.78;5077616;28;20221;-63
2021/12/21 09:59:28;;;;;;;2.60;2.40;;;;;;;2.87;43.83;95401.28;5077910;28;20206;-64
2021/12/21 10:01:57;;;;;;;2.90;2.70;;;;;;;2.88;44.74;95389.28;5076746;28;20439;-63
2021/12/21 10:04:24;;;;;;;3.60;3.00;;;;;;;3.08;42.46;95376.44;5076767;28;20196;-62
2021/12/21 10:06:54;;;;;;;2.30;2.20;;;;;;;3.39;42.71;95374.00;5077493;28;20190;-62
2021/12/21 10:09:24;;;;;;;2.83;2.60;;;;;;;3.67;41.58;95379.47;5076897;28;20510;-62
2021/12/21 10:11:53;;;;;;;2.22;2.10;;;;;;;3.88;41.92;95383.44;5093808;28;20204;-62
2021/12/21 10:14:25;;;;;;;2.33;2.08;;;;;;;3.86;41.62;95374.78;5093108;28;20197;-62
2021/12/21 10:17:01;;;;;;;2.47;2.15;;;;;;;3.77;42.42;95371.91;5076395;28;20197;-65
2021/12/21 10:19:28;;;;;;;2.55;2.20;;;;;;;3.23;42.14;95365.28;5093249;28;20216;-63
2021/12/21 10:21:54;;;;;;;2.35;2.10;;;;;;;2.95;42.59;95361.66;5077263;28;20196;-63
2021/12/21 10:24:25;;;;;;;2.70;2.50;;;;;;;2.97;43.17;95364.06;5077119;28;20181;-63
2021/12/21 10:26:53;;;;;;;2.50;2.30;;;;;;;2.97;43.41;95359.44;5092695;28;20193;-63
2021/12/21 10:29:21;;;;;;;2.30;2.10;;;;;;;2.95;43.52;95364.38;5077072;28;20192;-63
2021/12/21 10:31:50;;;;;;;2.42;2.22;;;;;;;2.85;44.07;95372.72;5093085;28;20208;-63
2021/12/21 10:34:20;;;;;;;2.67;2.47;;;;;;;2.89;44.42;95374.53;5076238;28;20610;-63
2021/12/21 10:36:49;;;;;;;3.10;2.50;;;;;;;2.95;44.94;95377.22;5076608;28;20216;-63
2021/12/21 10:39:20;;;;;;;3.33;3.03;;;;;;;2.86;44.44;95377.06;5076467;28;20623;-63
2021/12/21 10:41:47;;;;;;;3.47;3.17;;;;;;;2.89;44.45;95384.63;5075383;28;20203;-64
2021/12/21 10:44:16;;;;;;;3.47;3.17;;;;;;;2.86;44.60;95382.50;5092864;28;20201;-64
2021/12/21 10:46:46;;;;;;;3.92;3.60;;;;;;;2.86;44.89;95390.66;5076140;28;20200;-64
2021/12/21 10:49:15;;;;;;;4.70;3.53;;;;;;;2.87;45.13;95382.22;5076101;28;20530;-65
2021/12/21 10:51:52;;;;;;;2.60;2.40;;;;;;;2.85;44.46;95383.63;5075961;28;20197;-64
2021/12/21 10:54:27;;;;;;;2.72;2.53;;;;;;;2.81;43.95;95391.56;5076895;28;20196;-65
2021/12/21 10:56:57;;;;;;;2.30;2.10;;;;;;;2.87;43.57;95392.31;5075356;28;20231;-65
2021/12/21 10:59:29;;;;;;;2.38;2.17;;;;;;;2.85;42.68;95384.41;5076059;28;20267;-65
2021/12/21 11:02:05;;;;;;;2.20;2.10;;;;;;;2.84;42.92;95390.19;5076419;28;20200;-65
2021/12/21 11:04:36;;;;;;;2.30;2.10;;;;;;;2.83;43.54;95391.25;5076327;28;20602;-65
2021/12/21 11:07:19;;;;;;;2.67;2.47;;;;;;;2.83;43.66;95392.09;5075581;28;20205;-66
2021/12/21 11:09:54;;;;;;;2.55;2.35;;;;;;;2.83;43.32;95383.94;5076203;28;20242;-65
2021/12/21 11:12:22;;;;;;;3.08;2.78;;;;;;;2.84;43.09;95387.44;5076216;28;20184;-65
2021/12/21 11:14:51;;;;;;;3.25;2.92;;;;;;;2.90;42.80;95380.78;5076113;28;20182;-65
2021/12/21 11:17:19;;;;;;;3.30;3.00;;;;;;;2.89;42.84;95415.41;5091983;28;20197;-65
2021/12/21 11:19:46;;;;;;;2.88;2.42;;;;;;;2.76;42.81;95391.66;5076327;28;20228;-65
2021/12/21 11:22:14;;;;;;;2.10;2.00;;;;;;;2.65;43.73;95390.16;5075719;28;20177;-65
2021/12/21 11:24:41;;;;;;;2.05;1.88;;;;;;;2.57;44.33;95388.91;5075061;28;20193;-65
2021/12/21 11:27:07;;;;;;;2.40;2.20;;;;;;;2.44;43.87;95376.06;5075030;28;20219;-65
2021/12/21 11:29:36;;;;;;;3.15;2.95;;;;;;;2.37;43.43;95381.06;5076369;28;20193;-65
2021/12/21 11:32:04;;;;;;;3.25;3.05;;;;;;;2.36;43.26;95369.34;5075651;28;20235;-64
2021/12/21 11:34:35;;;;;;;2.85;2.53;;;;;;;2.37;41.96;95370.97;5091876;28;20219;-64
2021/12/21 11:39:47;;;;;;;3.35;2.90;;;;;;;5.16;37.41;95361.53;5074360;28;20216;-64
2021/12/21 11:42:22;;;;;;;2.75;2.55;;;;;;;5.54;34.30;95356.44;5091834;28;20193;-65
2021/12/21 11:44:56;;;;;;;2.25;2.05;;;;;;;6.00;34.33;95357.97;5075689;28;20196;-64
2021/12/21 11:47:29;;;;;;;2.58;2.38;;;;;;;6.03;33.90;95357.34;5077872;28;20600;-64
2021/12/21 11:50:01;;;;;;;2.60;2.40;;;;;;;7.21;32.97;95349.91;5075523;28;20189;-64
2021/12/21 11:52:28;;;;;;;3.53;3.20;;;;;;;6.72;32.87;95343.00;5074829;28;20204;-64
2021/12/21 11:54:57;;;;;;;2.72;2.40;;;;;;;5.89;34.40;95335.53;5074736;28;20208;-63
2021/12/21 11:57:36;;;;;;;2.10;2.00;;;;;;;6.01;34.54;95348.63;5091446;28;20236;-63
2021/12/21 12:00:09;;;;;;;3.17;2.10;;;;;;;6.97;33.16;95344.94;5075616;28;20200;-63
2021/12/21 12:02:37;;;;;;;2.00;1.80;;;;;;;6.20;34.02;95351.91;5091642;28;20203;-63
2021/12/21 12:05:15;;;;;;;3.30;2.40;;;;;;;5.40;35.65;95350.25;5074603;28;20197;-63
2021/12/21 12:07:42;;;;;;;2.65;2.45;;;;;;;4.95;36.70;95355.75;5075569;28;20181;-63
2021/12/21 12:10:10;;;;;;;3.25;2.65;;;;;;;4.92;36.98;95356.38;5091417;28;20220;-63
2021/12/21 12:12:37;;;;;;;2.58;2.38;;;;;;;5.08;36.48;95363.06;5075240;28;20185;-63
2021/12/21 12:15:06;;;;;;;2.90;2.70;;;;;;;6.26;34.76;95358.88;5075260;28;20186;-66
2021/12/21 12:17:33;;;;;;;2.80;2.60;;;;;;;6.26;33.94;95369.00;5074251;28;20439;-64
2021/12/21 12:20:05;;;;;;;4.85;3.50;;;;;;;5.63;34.39;95376.47;5074895;28;20213;-63
2021/12/21 12:22:37;;;;;;;3.72;3.42;;;;;;;5.22;35.11;95390.34;5074337;28;20192;-64
2021/12/21 12:25:06;;;;;;;3.17;2.85;;;;;;;4.81;35.45;95386.66;5091172;28;20200;-64
2021/12/21 12:27:33;;;;;;;3.00;2.80;;;;;;;4.48;35.65;95386.03;5074887;28;20271;-64